createdAt,value
2023-01-17T05:31:11.838Z,5.58
2023-01-17T05:35:17.587Z,5.58
2023-01-17T05:39:20.337Z,5.00
2023-01-17T05:43:23.400Z,5.03
2023-01-17T05:47:26.023Z,5.05
2023-01-17T05:51:29.558Z,5.05
2023-01-17T05:55:32.978Z,4.99
2023-01-17T05:59:37.490Z,4.98
2023-01-17T06:03:40.306Z,4.99
2023-01-17T06:07:45.380Z,4.97
2023-01-17T06:11:48.102Z,5.03
2023-01-17T06:15:51.140Z,4.99
2023-01-17T06:19:54.090Z,5.04
2023-01-17T06:23:57.260Z,5.01
2023-01-17T06:28:01.612Z,5.01
2023-01-17T06:32:05.126Z,4.99
2023-01-17T06:36:07.989Z,4.95
2023-01-17T06:40:11.847Z,4.98
2023-01-17T06:44:14.516Z,4.95
2023-01-17T06:48:18.319Z,4.89
2023-01-17T06:52:21.056Z,4.87
2023-01-17T06:56:24.383Z,4.92
2023-01-17T07:00:29.376Z,4.91
2023-01-17T07:04:34.552Z,4.96
2023-01-17T07:08:37.818Z,4.93
2023-01-17T07:12:42.425Z,4.88
2023-01-17T07:16:46.686Z,4.84
2023-01-17T07:21:01.963Z,4.79
2023-01-17T07:25:05.255Z,4.80
2023-01-17T07:29:08.334Z,4.79
2023-01-17T07:33:11.185Z,4.80
2023-01-17T07:37:15.302Z,4.76
2023-01-17T07:41:18.373Z,4.73
2023-01-17T07:45:22.030Z,4.77
2023-01-17T07:49:24.641Z,4.64
2023-01-17T07:53:30.089Z,4.58
2023-01-17T07:57:33.301Z,4.48
2023-01-17T08:01:36.434Z,4.47
2023-01-17T08:05:40.514Z,4.38
2023-01-17T08:09:44.575Z,4.38
2023-01-17T08:13:48.102Z,4.40
2023-01-17T08:18:13.216Z,4.41
2023-01-17T08:22:39.775Z,4.53
2023-01-17T08:31:25.782Z,4.67
2023-01-17T08:35:29.515Z,4.70
2023-01-17T08:39:50.925Z,4.79
2023-01-17T08:43:57.530Z,4.72
2023-01-17T08:48:20.594Z,4.75
2023-01-17T08:52:25.085Z,4.79
2023-01-17T08:56:32.336Z,4.94
2023-01-17T09:00:35.490Z,4.84
2023-01-17T09:04:38.840Z,4.69
2023-01-17T09:08:49.839Z,4.73
2023-01-17T09:12:52.635Z,4.67
2023-01-17T09:17:08.980Z,4.93
2023-01-17T09:21:21.482Z,4.96
2023-01-17T09:25:44.860Z,5.37
2023-01-17T09:29:47.780Z,5.58
2023-01-17T09:33:55.824Z,6.63
2023-01-17T09:38:01.197Z,5.87
2023-01-17T09:42:30.071Z,5.55
2023-01-17T09:51:21.553Z,7.62
2023-01-17T09:56:16.162Z,8.54
2023-01-17T10:01:21.251Z,9.20
2023-01-17T10:06:29.384Z,9.59
2023-01-17T10:11:18.360Z,10.34
2023-01-17T10:15:37.507Z,11.12
2023-01-17T10:20:14.885Z,11.06
2023-01-17T10:24:38.104Z,11.57
2023-01-17T10:28:51.275Z,12.45
2023-01-17T10:33:00.263Z,13.32
2023-01-17T10:37:28.996Z,13.45
2023-01-17T10:46:39.152Z,13.85
2023-01-17T10:50:56.120Z,14.32
2023-01-17T10:55:12.062Z,14.07
2023-01-17T10:59:30.918Z,14.90
2023-01-17T11:03:37.725Z,14.87
2023-01-17T11:08:01.960Z,14.18
2023-01-17T11:12:05.245Z,15.26
2023-01-17T11:16:55.027Z,15.37
2023-01-17T11:21:28.174Z,15.59
2023-01-17T11:25:44.235Z,15.40
2023-01-17T11:29:48.272Z,15.60
2023-01-17T11:34:19.330Z,15.40
2023-01-17T11:38:28.756Z,16.39
2023-01-17T11:43:01.423Z,15.82
2023-01-17T11:47:25.849Z,17.67
2023-01-17T11:51:41.633Z,17.15
2023-01-17T12:00:47.736Z,13.95
2023-01-17T12:05:19.222Z,16.12
2023-01-17T12:09:47.257Z,16.04
2023-01-17T12:14:25.315Z,16.51
2023-01-17T12:23:57.631Z,16.07
2023-01-17T12:28:39.550Z,15.79
2023-01-17T12:33:05.240Z,15.39
2023-01-17T12:37:21.949Z,15.42
2023-01-17T12:41:32.221Z,15.42
2023-01-17T12:51:08.898Z,13.23
2023-01-17T12:55:21.101Z,11.68
2023-01-17T13:00:18.245Z,11.11
2023-01-17T13:05:00.834Z,10.27
2023-01-17T13:09:06.290Z,10.27
2023-01-17T13:22:41.466Z,9.05
2023-01-17T13:27:00.081Z,8.98
2023-01-17T13:36:16.856Z,8.56
2023-01-17T13:40:37.216Z,8.44
2023-01-17T13:44:40.378Z,8.39
2023-01-17T13:48:43.093Z,8.30
2023-01-17T13:52:46.621Z,8.14
2023-01-17T13:56:49.452Z,8.01
2023-01-17T14:00:54.956Z,8.00
2023-01-17T14:05:10.351Z,7.91
2023-01-17T14:09:12.875Z,7.88
2023-01-17T14:13:37.928Z,8.04
2023-01-17T14:17:58.695Z,8.02
2023-01-17T14:22:20.230Z,7.62
2023-01-17T14:26:31.934Z,7.62
2023-01-17T14:30:37.299Z,7.54
2023-01-17T14:34:41.113Z,7.54
2023-01-17T14:38:44.796Z,7.36
2023-01-17T14:42:52.077Z,7.48
2023-01-17T14:46:55.351Z,7.45
2023-01-17T14:51:00.398Z,7.02
2023-01-17T14:55:15.572Z,6.86
2023-01-17T14:59:22.336Z,7.35
2023-01-17T15:03:25.613Z,7.57
2023-01-17T15:07:29.049Z,7.44
2023-01-17T15:11:33.538Z,7.38
2023-01-17T15:15:39.198Z,7.18
2023-01-17T15:19:46.801Z,6.93
2023-01-17T15:23:53.876Z,6.99
2023-01-17T15:27:57.038Z,6.86
2023-01-17T15:32:01.546Z,6.76
2023-01-17T15:36:34.431Z,6.75
2023-01-17T15:40:43.793Z,6.74
2023-01-17T15:44:51.486Z,6.74
2023-01-17T15:48:54.148Z,6.55
